createdAt,value
2023-04-13T00:00:27.308Z,9.87
2023-04-13T00:01:31.594Z,9.87
2023-04-13T00:02:35.889Z,9.88
2023-04-13T00:03:40.450Z,9.88
2023-04-13T00:04:44.420Z,9.89
2023-04-13T00:05:49.044Z,9.89
2023-04-13T00:06:52.948Z,9.89
2023-04-13T00:07:57.302Z,9.90
2023-04-13T00:09:01.642Z,9.90
2023-04-13T00:10:08.865Z,9.89
2023-04-13T00:11:12.270Z,9.89
2023-04-13T00:12:16.520Z,9.89
2023-04-13T00:13:20.813Z,9.89
2023-04-13T00:14:25.044Z,9.88
2023-04-13T00:15:29.354Z,9.88
2023-04-13T00:16:33.667Z,9.88
2023-04-13T00:17:37.885Z,9.87
2023-04-13T00:18:42.174Z,9.87
2023-04-13T00:19:46.373Z,9.86
2023-04-13T00:20:50.718Z,9.85
2023-04-13T00:21:55.039Z,9.85
2023-04-13T00:22:59.327Z,9.84
2023-04-13T00:24:03.561Z,9.83
2023-04-13T00:25:07.985Z,9.82
2023-04-13T00:26:12.173Z,9.81
2023-04-13T00:27:16.456Z,9.81
2023-04-13T00:28:20.690Z,9.80
2023-04-13T00:29:30.987Z,9.79
2023-04-13T00:30:34.098Z,9.79
2023-04-13T00:31:38.201Z,9.78
2023-04-13T00:32:42.564Z,9.76
2023-04-13T00:33:46.899Z,9.75
2023-04-13T00:34:51.182Z,9.74
2023-04-13T00:35:55.489Z,9.74
2023-04-13T00:37:02.782Z,9.73
2023-04-13T00:38:06.137Z,9.73
2023-04-13T00:39:10.434Z,9.72
2023-04-13T00:40:14.704Z,9.72
2023-04-13T00:41:18.999Z,9.71
2023-04-13T00:42:23.277Z,9.70
2023-04-13T00:43:27.473Z,9.69
2023-04-13T00:44:31.821Z,9.69
2023-04-13T00:45:36.109Z,9.68
2023-04-13T00:46:40.501Z,9.67
2023-04-13T00:47:44.709Z,9.66
2023-04-13T00:48:48.927Z,9.66
2023-04-13T00:49:53.189Z,9.66
2023-04-13T00:50:57.441Z,9.65
2023-04-13T00:52:01.746Z,9.64
2023-04-13T00:53:08.163Z,9.64
2023-04-13T00:54:10.177Z,9.64
2023-04-13T00:55:14.495Z,9.65
2023-04-13T00:56:18.736Z,9.65
2023-04-13T00:57:23.054Z,9.65
2023-04-13T00:58:27.255Z,9.64
2023-04-13T00:59:31.569Z,9.64
2023-04-13T01:00:35.934Z,9.65
2023-04-13T01:01:40.207Z,9.65
2023-04-13T01:02:44.736Z,9.65
2023-04-13T01:03:48.666Z,9.65
2023-04-13T01:04:53.079Z,9.65
2023-04-13T01:05:57.205Z,9.65
2023-04-13T01:07:01.524Z,9.64
2023-04-13T01:08:05.784Z,9.63
2023-04-13T01:09:10.106Z,9.62
2023-04-13T01:10:14.434Z,9.60
2023-04-13T01:11:18.662Z,9.59
2023-04-13T01:12:22.899Z,9.58
2023-04-13T01:13:27.236Z,9.58
2023-04-13T01:14:31.572Z,9.58
2023-04-13T01:15:35.927Z,9.57
2023-04-13T01:16:40.106Z,9.57
2023-04-13T01:17:50.430Z,9.56
2023-04-13T01:18:53.342Z,9.56
2023-04-13T01:19:57.622Z,9.55
2023-04-13T01:21:01.793Z,9.52
2023-04-13T01:22:06.136Z,9.51
2023-04-13T01:23:10.399Z,9.49
2023-04-13T01:24:14.599Z,9.48
2023-04-13T01:25:18.869Z,9.47
2023-04-13T01:26:23.136Z,9.43
2023-04-13T01:27:27.420Z,9.41
2023-04-13T01:28:31.579Z,9.39
2023-04-13T01:29:35.913Z,9.34
2023-04-13T01:30:40.164Z,9.31
2023-04-13T01:31:44.552Z,9.29
2023-04-13T01:32:48.709Z,9.28
2023-04-13T01:33:53.039Z,9.28
2023-04-13T01:34:57.326Z,9.27
2023-04-13T01:36:01.586Z,9.27
2023-04-13T01:37:05.874Z,9.27
2023-04-13T01:38:13.140Z,9.27
2023-04-13T01:39:16.408Z,9.28
2023-04-13T01:40:20.710Z,9.26
2023-04-13T01:41:24.910Z,9.23
2023-04-13T01:42:29.144Z,9.22
2023-04-13T01:43:33.519Z,9.20
2023-04-13T01:44:37.693Z,9.18
2023-04-13T01:45:41.963Z,9.17
2023-04-13T01:46:46.554Z,9.14
2023-04-13T01:47:51.569Z,9.13
2023-04-13T01:48:58.484Z,9.12
2023-04-13T01:50:01.750Z,9.12
2023-04-13T01:51:06.043Z,9.13
2023-04-13T01:52:10.258Z,9.14
2023-04-13T01:53:14.545Z,9.13
2023-04-13T01:54:18.794Z,9.13
2023-04-13T01:55:23.183Z,9.13
2023-04-13T01:56:27.329Z,9.12
2023-04-13T01:57:31.635Z,9.12
2023-04-13T01:58:35.843Z,9.11
2023-04-13T01:59:40.136Z,9.07
2023-04-13T02:00:44.486Z,9.04
2023-04-13T02:01:48.721Z,9.02
2023-04-13T02:02:53.194Z,9.02
2023-04-13T02:03:57.958Z,9.02
2023-04-13T02:05:01.579Z,9.02
2023-04-13T02:06:05.788Z,9.01
2023-04-13T02:07:10.043Z,9.00
2023-04-13T02:08:14.453Z,9.00
2023-04-13T02:09:18.727Z,8.99
2023-04-13T02:10:23.051Z,8.98
2023-04-13T02:11:27.255Z,8.98
2023-04-13T02:12:31.470Z,8.97
2023-04-13T02:13:35.718Z,8.97
2023-04-13T02:14:40.128Z,8.98
2023-04-13T02:15:47.345Z,8.99
2023-04-13T02:16:50.829Z,9.00
2023-04-13T02:17:54.968Z,9.00
2023-04-13T02:18:59.218Z,9.00
2023-04-13T02:20:03.441Z,9.00
2023-04-13T02:21:07.753Z,9.01
2023-04-13T02:22:11.962Z,9.00
2023-04-13T02:23:16.248Z,8.98
2023-04-13T02:24:20.471Z,8.97
2023-04-13T02:25:24.827Z,8.95
2023-04-13T02:26:29.025Z,8.93
2023-04-13T02:27:33.330Z,8.91
2023-04-13T02:28:37.419Z,8.90
2023-04-13T02:29:41.716Z,8.88
2023-04-13T02:30:45.979Z,8.87
2023-04-13T02:31:50.295Z,8.85
2023-04-13T02:32:54.528Z,8.81
2023-04-13T02:33:59.132Z,8.79
2023-04-13T02:35:03.037Z,8.78
2023-04-13T02:36:07.317Z,8.77
2023-04-13T02:37:11.631Z,8.75
2023-04-13T02:38:15.832Z,8.74
2023-04-13T02:39:20.141Z,8.72
2023-04-13T02:40:24.345Z,8.72
2023-04-13T02:41:28.606Z,8.71
2023-04-13T02:42:32.884Z,8.71
2023-04-13T02:43:37.139Z,8.70
2023-04-13T02:44:41.469Z,8.69
2023-04-13T02:45:45.740Z,8.67
2023-04-13T02:46:49.963Z,8.66
2023-04-13T02:47:54.254Z,8.64
2023-04-13T02:48:58.419Z,8.63
2023-04-13T02:50:02.694Z,8.60
2023-04-13T02:51:07.018Z,8.58
2023-04-13T02:52:11.257Z,8.56
2023-04-13T02:53:15.519Z,8.53
2023-04-13T02:54:19.706Z,8.51
2023-04-13T02:55:24.035Z,8.47
2023-04-13T02:56:28.432Z,8.45
2023-04-13T02:57:32.485Z,8.41
2023-04-13T02:58:36.821Z,8.38
2023-04-13T02:59:41.044Z,8.35
2023-04-13T03:00:45.322Z,8.32
2023-04-13T03:01:49.796Z,8.30
2023-04-13T03:02:53.811Z,8.29
2023-04-13T03:03:58.350Z,8.28
2023-04-13T03:05:08.376Z,8.27
2023-04-13T03:06:11.254Z,8.27
2023-04-13T03:07:15.490Z,8.26
2023-04-13T03:08:19.743Z,8.26
2023-04-13T03:09:26.975Z,8.25
2023-04-13T03:10:30.290Z,8.25
2023-04-13T03:11:34.578Z,8.23
2023-04-13T03:12:38.856Z,8.22
2023-04-13T03:13:43.048Z,8.19
2023-04-13T03:14:47.364Z,8.16
2023-04-13T03:15:51.525Z,8.13
2023-04-13T03:16:55.860Z,8.11
2023-04-13T03:18:00.217Z,8.08
2023-04-13T03:19:04.369Z,8.06
2023-04-13T03:20:08.635Z,8.03
2023-04-13T03:21:12.822Z,8.00
2023-04-13T03:22:17.149Z,7.97
2023-04-13T03:23:21.328Z,7.94
2023-04-13T03:24:25.700Z,7.92
2023-04-13T03:25:31.872Z,7.90
2023-04-13T03:26:34.174Z,7.89
2023-04-13T03:27:38.350Z,7.86
2023-04-13T03:28:42.626Z,7.84
2023-04-13T03:29:46.921Z,7.82
2023-04-13T03:30:51.175Z,7.80
2023-04-13T03:31:55.492Z,7.78
2023-04-13T03:32:59.717Z,7.76
2023-04-13T03:34:03.977Z,7.75
2023-04-13T03:35:08.160Z,7.75
2023-04-13T03:36:12.370Z,7.73
2023-04-13T03:37:16.712Z,7.72
2023-04-13T03:38:20.816Z,7.71
2023-04-13T03:39:25.187Z,7.70
2023-04-13T03:40:29.437Z,7.68
2023-04-13T03:41:33.715Z,7.67
2023-04-13T03:42:37.893Z,7.66
2023-04-13T03:43:42.169Z,7.65
2023-04-13T03:44:46.435Z,7.64
2023-04-13T03:45:50.767Z,7.64
2023-04-13T03:46:55.008Z,7.64
2023-04-13T03:47:59.341Z,7.65
2023-04-13T03:49:03.455Z,7.65
2023-04-13T03:50:07.690Z,7.66
2023-04-13T03:51:12.065Z,7.67
2023-04-13T03:52:16.343Z,7.66
2023-04-13T03:53:20.602Z,7.67
2023-04-13T03:54:24.806Z,7.67
2023-04-13T03:55:35.159Z,7.67
2023-04-13T03:56:37.974Z,7.67
2023-04-13T03:57:42.120Z,7.67
2023-04-13T03:58:46.375Z,7.67
2023-04-13T03:59:50.693Z,7.65
2023-04-13T04:00:54.909Z,7.63
2023-04-13T04:01:59.217Z,7.62
2023-04-13T04:03:03.450Z,7.61
2023-04-13T04:04:07.945Z,7.59
2023-04-13T04:05:11.975Z,7.59
2023-04-13T04:06:16.245Z,7.57
2023-04-13T04:07:20.426Z,7.55
2023-04-13T04:08:24.630Z,7.53
2023-04-13T04:09:28.877Z,7.52
2023-04-13T04:10:33.236Z,7.50
2023-04-13T04:11:37.475Z,7.47
2023-04-13T04:12:41.686Z,7.45
2023-04-13T04:13:45.904Z,7.43
2023-04-13T04:14:50.157Z,7.41
2023-04-13T04:15:54.475Z,7.39
2023-04-13T04:17:01.691Z,7.37
2023-04-13T04:18:05.204Z,7.36
2023-04-13T04:19:09.288Z,7.35
2023-04-13T04:20:13.575Z,7.33
2023-04-13T04:21:17.700Z,7.33
2023-04-13T04:22:21.945Z,7.32
2023-04-13T04:23:26.058Z,7.31
2023-04-13T04:24:30.359Z,7.30
2023-04-13T04:25:34.576Z,7.29
2023-04-13T04:26:38.882Z,7.29
2023-04-13T04:27:43.227Z,7.28
2023-04-13T04:28:47.431Z,7.26
2023-04-13T04:29:51.756Z,7.25
2023-04-13T04:30:55.994Z,7.23
2023-04-13T04:32:00.321Z,7.23
2023-04-13T04:33:04.444Z,7.22
2023-04-13T04:34:08.752Z,7.21
2023-04-13T04:35:12.979Z,7.21
2023-04-13T04:36:17.277Z,7.20
2023-04-13T04:37:21.547Z,7.19
2023-04-13T04:38:25.746Z,7.18
2023-04-13T04:39:30.053Z,7.17
2023-04-13T04:40:34.343Z,7.16
2023-04-13T04:41:38.578Z,7.14
2023-04-13T04:42:42.766Z,7.12
2023-04-13T04:43:47.123Z,7.11
2023-04-13T04:44:51.360Z,7.10
2023-04-13T04:45:55.622Z,7.08
2023-04-13T04:46:59.748Z,7.06
2023-04-13T04:48:04.160Z,7.04
2023-04-13T04:49:08.243Z,7.03
2023-04-13T04:50:12.527Z,7.03
2023-04-13T04:51:16.781Z,7.02
2023-04-13T04:52:21.674Z,7.01
2023-04-13T04:53:25.212Z,7.01
2023-04-13T04:54:29.408Z,7.01
2023-04-13T04:55:33.688Z,7.01
2023-04-13T04:56:37.892Z,7.01
2023-04-13T04:57:42.137Z,7.01
2023-04-13T04:58:46.346Z,7.00
2023-04-13T04:59:50.680Z,7.00
2023-04-13T05:00:54.955Z,7.00
2023-04-13T05:01:59.107Z,6.99
2023-04-13T05:03:03.405Z,6.99
2023-04-13T05:04:07.574Z,6.99
2023-04-13T05:05:11.965Z,6.99
2023-04-13T05:06:16.096Z,6.99
2023-04-13T05:07:20.240Z,7.00
2023-04-13T05:08:24.483Z,7.02
2023-04-13T05:09:42.814Z,7.03
2023-04-13T05:10:45.956Z,7.06
2023-04-13T05:11:50.107Z,7.09
2023-04-13T05:12:54.327Z,7.11
2023-04-13T05:13:58.596Z,7.13
2023-04-13T05:15:02.940Z,7.15
2023-04-13T05:16:07.195Z,7.17
2023-04-13T05:17:11.349Z,7.18
2023-04-13T05:18:15.680Z,7.18
2023-04-13T05:19:19.962Z,7.19
2023-04-13T05:20:24.138Z,7.21
2023-04-13T05:21:28.528Z,7.23
2023-04-13T05:22:32.657Z,7.25
2023-04-13T05:23:36.843Z,7.27
2023-04-13T05:24:41.189Z,7.29
2023-04-13T05:25:45.451Z,7.31
2023-04-13T05:26:49.775Z,7.32
2023-04-13T05:27:54.011Z,7.34
2023-04-13T05:28:58.413Z,7.37
2023-04-13T05:30:02.440Z,7.40
2023-04-13T05:31:06.680Z,7.45
2023-04-13T05:32:11.040Z,7.50
2023-04-13T05:33:15.220Z,7.54
2023-04-13T05:34:19.493Z,7.59
2023-04-13T05:35:23.744Z,7.63
2023-04-13T05:36:28.001Z,7.66
2023-04-13T05:37:32.108Z,7.70
2023-04-13T05:38:36.412Z,7.74
2023-04-13T05:39:40.781Z,7.76
2023-04-13T05:40:45.004Z,7.79
2023-04-13T05:41:49.368Z,7.81
2023-04-13T05:42:53.511Z,7.83
2023-04-13T05:43:58.676Z,7.85
2023-04-13T05:45:02.533Z,7.86
2023-04-13T05:46:06.776Z,7.89
2023-04-13T05:47:11.017Z,7.92
2023-04-13T05:48:15.376Z,7.95
2023-04-13T05:49:19.654Z,7.98
2023-04-13T05:50:23.811Z,8.00
2023-04-13T05:51:28.191Z,8.02
2023-04-13T05:52:32.380Z,8.06
2023-04-13T05:53:36.713Z,8.12
2023-04-13T05:54:40.996Z,8.20
2023-04-13T05:55:47.573Z,8.31
2023-04-13T05:56:49.430Z,8.44
2023-04-13T05:58:07.772Z,8.57
2023-04-13T05:59:10.879Z,8.74
2023-04-13T06:00:14.942Z,8.85
2023-04-13T06:01:19.214Z,8.92
2023-04-13T06:02:23.655Z,8.99
2023-04-13T06:03:27.942Z,9.04
2023-04-13T06:04:32.211Z,9.08
2023-04-13T06:05:36.169Z,9.11
2023-04-13T06:06:40.485Z,9.12
2023-04-13T06:07:44.785Z,9.13
2023-04-13T06:08:49.102Z,9.13
2023-04-13T06:09:53.395Z,9.14
2023-04-13T06:10:57.688Z,9.15
2023-04-13T06:12:01.893Z,9.16
2023-04-13T06:13:06.160Z,9.17
2023-04-13T06:14:10.444Z,9.17
2023-04-13T06:15:14.786Z,9.18
2023-04-13T06:16:19.108Z,9.20
2023-04-13T06:17:23.370Z,9.21
2023-04-13T06:18:27.669Z,9.23
2023-04-13T06:19:31.986Z,9.27
2023-04-13T06:20:36.287Z,9.32
2023-04-13T06:21:40.496Z,9.37
2023-04-13T06:22:44.798Z,9.41
2023-04-13T06:23:49.147Z,9.47
2023-04-13T06:24:53.406Z,9.52
2023-04-13T06:25:57.786Z,9.58
2023-04-13T06:27:01.990Z,9.64
2023-04-13T06:28:06.267Z,9.69
2023-04-13T06:29:10.688Z,9.74
2023-04-13T06:30:14.925Z,9.77
2023-04-13T06:31:19.270Z,9.79
2023-04-13T06:32:23.458Z,9.80
2023-04-13T06:33:27.806Z,9.83
2023-04-13T06:34:32.167Z,9.84
2023-04-13T06:35:42.497Z,9.86
2023-04-13T06:36:45.373Z,9.87
2023-04-13T06:37:49.519Z,9.89
2023-04-13T06:38:53.801Z,9.91
2023-04-13T06:39:58.085Z,9.91
2023-04-13T06:41:02.354Z,9.91
2023-04-13T06:42:06.604Z,9.91
2023-04-13T06:43:18.890Z,9.92
2023-04-13T06:44:15.201Z,9.96
2023-04-13T06:45:19.380Z,10.01
2023-04-13T06:46:23.801Z,10.06
2023-04-13T06:47:28.063Z,10.10
2023-04-13T06:48:32.278Z,10.12
2023-04-13T06:49:36.561Z,10.13
2023-04-13T06:50:40.760Z,10.12
2023-04-13T06:51:45.031Z,10.14
2023-04-13T06:52:49.310Z,10.16
2023-04-13T06:53:53.759Z,10.23
2023-04-13T06:55:00.930Z,10.33
2023-04-13T06:56:04.388Z,10.42
2023-04-13T06:57:08.664Z,10.50
2023-04-13T06:58:12.990Z,10.59
2023-04-13T06:59:17.240Z,10.67
2023-04-13T07:00:29.754Z,10.73
2023-04-13T07:01:26.636Z,10.76
2023-04-13T07:02:30.891Z,10.75
2023-04-13T07:03:35.171Z,10.72
2023-04-13T07:04:39.523Z,10.66
2023-04-13T07:05:43.535Z,10.59
2023-04-13T07:06:47.783Z,10.53
2023-04-13T07:07:52.116Z,10.47
2023-04-13T07:08:56.601Z,10.40
2023-04-13T07:10:00.844Z,10.34
2023-04-13T07:11:04.984Z,10.26
2023-04-13T07:12:09.236Z,10.20
2023-04-13T07:13:13.550Z,10.16
2023-04-13T07:14:17.763Z,10.13
2023-04-13T07:15:22.024Z,10.08
2023-04-13T07:16:26.494Z,10.03
2023-04-13T07:17:30.657Z,9.98
2023-04-13T07:18:34.839Z,9.95
2023-04-13T07:19:39.095Z,9.93
2023-04-13T07:20:43.470Z,9.91
2023-04-13T07:21:47.653Z,9.91
2023-04-13T07:22:51.910Z,9.90
2023-04-13T07:23:56.066Z,9.90
2023-04-13T07:25:00.386Z,9.90
2023-04-13T07:26:04.714Z,9.91
2023-04-13T07:27:08.948Z,9.90
2023-04-13T07:28:13.228Z,9.91
2023-04-13T07:29:17.496Z,9.92
2023-04-13T07:30:35.856Z,9.93
2023-04-13T07:31:38.917Z,9.94
2023-04-13T07:32:43.236Z,9.96
2023-04-13T07:33:53.528Z,9.99
2023-04-13T07:34:56.387Z,10.01
2023-04-13T07:36:00.788Z,10.03
2023-04-13T07:37:04.859Z,10.04
2023-04-13T07:38:09.097Z,10.06
2023-04-13T07:39:13.482Z,10.07
2023-04-13T07:40:20.721Z,10.08
2023-04-13T07:41:24.130Z,10.09
2023-04-13T07:42:28.384Z,10.09
2023-04-13T07:43:32.594Z,10.09
2023-04-13T07:44:36.741Z,10.09
2023-04-13T07:45:41.139Z,10.08
2023-04-13T07:46:45.398Z,10.08
2023-04-13T07:47:49.735Z,10.08
2023-04-13T07:48:54.012Z,10.10
2023-04-13T07:49:58.304Z,10.10
2023-04-13T07:51:02.653Z,10.12
2023-04-13T07:52:06.895Z,10.13
2023-04-13T07:53:11.224Z,10.15
2023-04-13T07:54:16.687Z,10.18
2023-04-13T07:55:19.724Z,10.20
2023-04-13T07:56:24.051Z,10.23
2023-04-13T07:57:28.309Z,10.27
2023-04-13T07:58:32.589Z,10.29
2023-04-13T07:59:36.865Z,10.31
2023-04-13T08:00:41.102Z,10.33
2023-04-13T08:01:45.421Z,10.36
2023-04-13T08:02:49.942Z,10.38
2023-04-13T08:03:54.173Z,10.39
2023-04-13T08:04:58.348Z,10.40
2023-04-13T08:06:02.548Z,10.42
2023-04-13T08:07:06.818Z,10.44
2023-04-13T08:08:11.252Z,10.46
2023-04-13T08:09:15.448Z,10.48
2023-04-13T08:10:19.715Z,10.51
2023-04-13T08:11:23.976Z,10.53
2023-04-13T08:12:28.239Z,10.55
2023-04-13T08:13:32.474Z,10.57
2023-04-13T08:14:36.802Z,10.58
2023-04-13T08:15:41.045Z,10.59
2023-04-13T08:16:45.401Z,10.59
2023-04-13T08:17:49.643Z,10.59
2023-04-13T08:18:53.990Z,10.60
2023-04-13T08:19:58.220Z,10.60
2023-04-13T08:21:02.456Z,10.61
2023-04-13T08:22:06.739Z,10.62
2023-04-13T08:23:12.475Z,10.62
2023-04-13T08:24:15.436Z,10.64
2023-04-13T08:25:19.623Z,10.64
2023-04-13T08:26:29.937Z,10.64
2023-04-13T08:27:32.820Z,10.65
2023-04-13T08:28:37.091Z,10.66
2023-04-13T08:29:41.484Z,10.68
2023-04-13T08:30:45.757Z,10.71
2023-04-13T08:31:50.150Z,10.72
2023-04-13T08:32:54.467Z,10.73
2023-04-13T08:33:58.671Z,10.74
2023-04-13T08:35:02.927Z,10.74
2023-04-13T08:36:07.171Z,10.75
2023-04-13T08:37:11.508Z,10.76
2023-04-13T08:38:15.835Z,10.78
2023-04-13T08:39:20.057Z,10.80
2023-04-13T08:40:24.275Z,10.82
2023-04-13T08:41:28.554Z,10.83
2023-04-13T08:42:32.826Z,10.84
2023-04-13T08:43:51.093Z,10.86
2023-04-13T08:44:54.088Z,10.86
2023-04-13T08:45:58.337Z,10.86
2023-04-13T08:47:02.689Z,10.88
2023-04-13T08:48:07.004Z,10.90
2023-04-13T08:49:11.197Z,10.91
2023-04-13T08:50:15.584Z,10.94
2023-04-13T08:51:33.935Z,10.95
2023-04-13T08:52:37.147Z,10.94
2023-04-13T08:53:41.414Z,10.93
2023-04-13T08:54:45.674Z,10.93
2023-04-13T08:55:49.900Z,10.95
2023-04-13T08:57:08.307Z,10.98
2023-04-13T08:58:11.475Z,11.03
2023-04-13T08:59:15.996Z,11.06
2023-04-13T09:00:19.926Z,11.07
2023-04-13T09:01:24.192Z,11.05
2023-04-13T09:02:28.749Z,11.05
2023-04-13T09:03:32.836Z,11.06
2023-04-13T09:04:37.070Z,11.09
2023-04-13T09:05:41.364Z,11.11
2023-04-13T09:06:45.643Z,11.12
2023-04-13T09:07:49.896Z,11.13
2023-04-13T09:08:54.232Z,11.15
2023-04-13T09:09:58.540Z,11.17
2023-04-13T09:11:02.818Z,11.19
2023-04-13T09:12:07.026Z,11.24
2023-04-13T09:13:11.289Z,11.29
2023-04-13T09:14:21.694Z,11.34
2023-04-13T09:15:24.665Z,11.38
2023-04-13T09:16:28.844Z,11.41
2023-04-13T09:17:33.111Z,11.43
2023-04-13T09:18:37.310Z,11.43
2023-04-13T09:19:41.690Z,11.42
2023-04-13T09:20:46.030Z,11.41
2023-04-13T09:21:50.486Z,11.42
2023-04-13T09:23:08.606Z,11.44
2023-04-13T09:24:12.177Z,11.48
2023-04-13T09:25:16.262Z,11.53
2023-04-13T09:26:20.444Z,11.54
2023-04-13T09:27:24.864Z,11.52
2023-04-13T09:28:29.119Z,11.52
2023-04-13T09:29:33.343Z,11.52
2023-04-13T09:30:37.698Z,11.54
2023-04-13T09:31:44.914Z,11.54
2023-04-13T09:32:46.286Z,11.55
2023-04-13T09:33:50.703Z,11.55
2023-04-13T09:34:54.952Z,11.57
2023-04-13T09:35:59.221Z,11.59
2023-04-13T09:37:03.550Z,11.61
2023-04-13T09:38:07.848Z,11.65
2023-04-13T09:39:12.110Z,11.72
2023-04-13T09:40:16.440Z,11.79
2023-04-13T09:41:20.703Z,11.85
2023-04-13T09:42:25.010Z,11.94
2023-04-13T09:43:29.343Z,12.00
2023-04-13T09:44:33.664Z,12.05
2023-04-13T09:45:37.948Z,12.05
2023-04-13T09:46:42.431Z,12.04
2023-04-13T09:47:46.591Z,11.98
2023-04-13T09:48:50.842Z,11.98
2023-04-13T09:49:55.147Z,11.98
2023-04-13T09:51:15.630Z,11.96
2023-04-13T09:52:21.916Z,11.99
2023-04-13T09:53:25.279Z,12.00
2023-04-13T09:54:29.460Z,12.00
2023-04-13T09:55:33.757Z,12.00
2023-04-13T09:56:38.194Z,11.99
2023-04-13T09:57:42.412Z,11.96
2023-04-13T09:58:46.765Z,11.94
2023-04-13T09:59:51.061Z,11.89
2023-04-13T10:00:55.429Z,11.88
2023-04-13T10:01:59.750Z,11.88
2023-04-13T10:03:04.152Z,11.87
2023-04-13T10:04:08.246Z,11.87
2023-04-13T10:05:12.671Z,11.87
2023-04-13T10:06:16.837Z,11.87
2023-04-13T10:07:21.188Z,11.88
2023-04-13T10:08:36.634Z,11.88
2023-04-13T10:09:29.778Z,11.87
2023-04-13T10:10:34.141Z,11.86
2023-04-13T10:11:38.475Z,11.85
2023-04-13T10:12:42.773Z,11.84
2023-04-13T10:13:47.133Z,11.84
2023-04-13T10:14:51.399Z,11.85
2023-04-13T10:15:57.301Z,11.85
2023-04-13T10:16:59.948Z,11.85
2023-04-13T10:18:04.379Z,11.85
2023-04-13T10:19:08.513Z,11.85
2023-04-13T10:20:18.837Z,11.86
2023-04-13T10:21:21.862Z,11.88
2023-04-13T10:22:25.992Z,11.90
2023-04-13T10:23:30.420Z,11.91
2023-04-13T10:24:34.684Z,11.93
2023-04-13T10:26:43.327Z,11.98
2023-04-13T10:27:47.725Z,12.00
2023-04-13T10:28:51.960Z,12.02
2023-04-13T10:29:56.264Z,12.04
2023-04-13T10:31:00.557Z,12.07
2023-04-13T10:32:05.066Z,12.09
2023-04-13T10:33:23.176Z,12.12
2023-04-13T10:34:26.073Z,12.16
2023-04-13T10:35:30.269Z,12.19
2023-04-13T10:36:34.497Z,12.21
2023-04-13T10:37:38.756Z,12.22
2023-04-13T10:38:43.077Z,12.23
2023-04-13T10:39:47.324Z,12.23
2023-04-13T10:40:51.576Z,12.24
2023-04-13T10:41:55.965Z,12.25
2023-04-13T10:43:00.296Z,12.26
2023-04-13T10:44:04.528Z,12.27
2023-04-13T10:45:08.780Z,12.28
2023-04-13T10:46:13.157Z,12.28
2023-04-13T10:47:25.049Z,12.28
2023-04-13T10:48:26.274Z,12.28
2023-04-13T10:49:30.531Z,12.29
2023-04-13T10:50:34.767Z,12.30
2023-04-13T10:51:39.055Z,12.31
2023-04-13T10:52:43.336Z,12.31
2023-04-13T10:53:47.690Z,12.32
2023-04-13T10:54:52.001Z,12.33
2023-04-13T10:55:56.231Z,12.33
2023-04-13T10:57:00.640Z,12.33
2023-04-13T10:58:05.076Z,12.33
2023-04-13T10:59:09.229Z,12.33
2023-04-13T11:00:13.558Z,12.32
2023-04-13T11:01:17.898Z,12.33
2023-04-13T11:02:25.307Z,12.38
2023-04-13T11:03:28.858Z,12.48
2023-04-13T11:04:32.821Z,12.59
2023-04-13T11:05:37.050Z,12.70
2023-04-13T11:06:41.389Z,12.77
2023-04-13T11:07:45.653Z,12.80
2023-04-13T11:08:49.958Z,12.80
2023-04-13T11:09:54.263Z,12.76
2023-04-13T11:10:58.629Z,12.73
2023-04-13T11:12:02.910Z,12.72
2023-04-13T11:13:07.146Z,12.71
2023-04-13T11:14:11.466Z,12.71
2023-04-13T11:15:15.823Z,12.69
2023-04-13T11:16:20.229Z,12.68
2023-04-13T11:17:24.677Z,12.66
2023-04-13T11:18:28.823Z,12.63
2023-04-13T11:19:33.054Z,12.58
2023-04-13T11:20:37.413Z,12.59
2023-04-13T11:21:41.630Z,12.60
2023-04-13T11:22:47.351Z,12.62
2023-04-13T11:24:04.300Z,12.63
2023-04-13T11:25:07.319Z,12.64
2023-04-13T11:26:11.612Z,12.63
2023-04-13T11:27:15.896Z,12.65
2023-04-13T11:28:20.268Z,12.66
2023-04-13T11:29:24.517Z,12.68
2023-04-13T11:30:28.851Z,12.69
2023-04-13T11:31:33.189Z,12.69
2023-04-13T11:32:43.646Z,12.67
2023-04-13T11:33:46.472Z,12.66
2023-04-13T11:34:50.757Z,12.66
2023-04-13T11:35:55.037Z,12.67
2023-04-13T11:36:59.427Z,12.71
2023-04-13T11:38:03.691Z,12.74
2023-04-13T11:39:10.132Z,12.75
2023-04-13T11:40:12.286Z,12.75
2023-04-13T11:41:17.503Z,12.74
2023-04-13T11:42:20.878Z,12.70
2023-04-13T11:43:25.281Z,12.68
2023-04-13T11:44:29.574Z,12.66
2023-04-13T11:45:33.835Z,12.63
2023-04-13T11:46:38.243Z,12.62
2023-04-13T11:47:48.441Z,12.61
2023-04-13T11:48:51.356Z,12.60
2023-04-13T11:49:55.530Z,12.62
2023-04-13T11:50:59.883Z,12.62
2023-04-13T11:52:04.181Z,12.63
2023-04-13T11:53:08.521Z,12.63
2023-04-13T11:54:12.883Z,12.62
2023-04-13T11:55:23.141Z,12.62
2023-04-13T11:56:21.472Z,12.61
2023-04-13T11:57:25.842Z,12.61
2023-04-13T11:58:36.078Z,12.59
2023-04-13T11:59:39.041Z,12.58
2023-04-13T12:00:43.285Z,12.57
2023-04-13T12:01:50.212Z,12.57
2023-04-13T12:04:07.804Z,12.59
2023-04-13T12:05:00.522Z,12.62
2023-04-13T12:06:07.950Z,12.66
2023-04-13T12:07:25.724Z,12.71
2023-04-13T12:08:28.732Z,12.77
2023-04-13T12:09:54.671Z,12.82
2023-04-13T12:10:42.970Z,12.85
2023-04-13T12:11:44.211Z,12.88
2023-04-13T12:12:53.175Z,12.86
2023-04-13T12:14:05.828Z,12.86
2023-04-13T12:15:06.795Z,12.84
2023-04-13T12:16:08.484Z,12.84
2023-04-13T12:17:12.376Z,12.83
2023-04-13T12:19:13.501Z,12.81
2023-04-13T12:20:15.989Z,12.79
2023-04-13T12:21:20.766Z,12.77
2023-04-13T12:22:24.478Z,12.76
2023-04-13T12:23:28.799Z,12.74
2023-04-13T12:24:33.103Z,12.73
2023-04-13T12:27:18.513Z,12.71
2023-04-13T12:28:12.902Z,12.70
2023-04-13T12:29:17.145Z,12.68
2023-04-13T12:30:21.612Z,12.66
2023-04-13T12:31:25.830Z,12.64
2023-04-13T12:32:30.228Z,12.62
2023-04-13T12:33:40.525Z,12.61
2023-04-13T12:34:43.542Z,12.58
2023-04-13T12:35:47.703Z,12.57
2023-04-13T12:36:51.992Z,12.56
2023-04-13T12:37:56.269Z,12.54
2023-04-13T12:39:00.764Z,12.53
2023-04-13T12:40:04.914Z,12.51
2023-04-13T12:41:09.184Z,12.49
2023-04-13T12:42:13.510Z,12.47
2023-04-13T12:43:17.824Z,12.45
2023-04-13T12:44:22.047Z,12.42
2023-04-13T12:45:40.420Z,12.40
2023-04-13T12:46:43.661Z,12.39
2023-04-13T12:47:47.851Z,12.37
2023-04-13T12:48:52.123Z,12.36
2023-04-13T12:49:56.367Z,12.34
2023-04-13T12:51:00.659Z,12.33
2023-04-13T12:52:04.896Z,12.32
2023-04-13T12:53:09.210Z,12.30
2023-04-13T12:54:13.518Z,12.30
2023-04-13T12:55:17.769Z,12.28
2023-04-13T12:56:22.092Z,12.27
2023-04-13T12:58:53.464Z,12.23
2023-04-13T12:59:57.696Z,12.22
2023-04-13T13:01:02.018Z,12.21
2023-04-13T13:02:06.369Z,12.20
2023-04-13T13:03:14.060Z,12.19
2023-04-13T13:04:28.926Z,12.17
2023-04-13T13:05:32.051Z,12.16
2023-04-13T13:06:36.216Z,12.16
2023-04-13T13:07:40.483Z,12.15
2023-04-13T13:08:44.781Z,12.14
2023-04-13T13:09:49.014Z,12.13
2023-04-13T13:10:53.411Z,12.13
2023-04-13T13:11:57.593Z,12.12
2023-04-13T13:13:01.951Z,12.11
2023-04-13T13:14:06.163Z,12.10
2023-04-13T13:15:10.442Z,12.09
2023-04-13T13:16:14.831Z,12.09
2023-04-13T13:17:19.022Z,12.08
2023-04-13T13:18:23.272Z,12.08
2023-04-13T13:19:27.520Z,12.08
2023-04-13T13:20:31.772Z,12.08
2023-04-13T13:21:36.070Z,12.08
2023-04-13T13:22:40.317Z,12.07
2023-04-13T13:23:44.673Z,12.07
2023-04-13T13:24:48.902Z,12.07
2023-04-13T13:26:23.251Z,12.06
2023-04-13T13:28:19.210Z,12.05
2023-04-13T13:29:23.533Z,12.04
2023-04-13T13:30:27.726Z,12.04
2023-04-13T13:31:32.234Z,12.04
2023-04-13T13:32:36.312Z,12.04
2023-04-13T13:33:40.566Z,12.06
2023-04-13T13:34:45.031Z,12.07
2023-04-13T13:35:49.204Z,12.07
2023-04-13T13:36:53.482Z,12.10
2023-04-13T13:37:57.754Z,12.19
2023-04-13T13:39:02.123Z,12.28
2023-04-13T13:40:06.327Z,12.37
2023-04-13T13:41:10.632Z,12.42
2023-04-13T13:42:14.921Z,12.46
2023-04-13T13:43:19.222Z,12.48
2023-04-13T13:44:37.860Z,12.49
2023-04-13T13:45:40.848Z,12.50
2023-04-13T13:46:45.028Z,12.52
2023-04-13T13:47:49.430Z,12.55
2023-04-13T13:48:54.552Z,12.56
2023-04-13T13:49:58.432Z,12.56
2023-04-13T13:51:03.688Z,12.57
2023-04-13T13:52:07.115Z,12.57
2023-04-13T13:53:11.363Z,12.57
2023-04-13T13:54:15.736Z,12.57
2023-04-13T13:55:20.071Z,12.57
2023-04-13T13:56:24.369Z,12.57
2023-04-13T13:57:28.675Z,12.57
2023-04-13T13:58:39.053Z,12.56
2023-04-13T13:59:41.988Z,12.55
2023-04-13T14:00:46.310Z,12.54
2023-04-13T14:01:50.675Z,12.54
2023-04-13T14:02:54.953Z,12.55
2023-04-13T14:03:59.340Z,12.56
2023-04-13T14:05:03.405Z,12.57
2023-04-13T14:06:07.689Z,12.60
2023-04-13T14:07:11.962Z,12.63
2023-04-13T14:08:16.258Z,12.66
2023-04-13T14:09:20.521Z,12.69
2023-04-13T14:10:24.846Z,12.74
2023-04-13T14:11:29.196Z,12.80
2023-04-13T14:12:33.532Z,12.86
2023-04-13T14:13:37.777Z,12.91